Time;durP1;ratioP1;P1;durP2;ratioP2;P2;SDS_P1;SDS_P2;PMS_P1;PMS_P2;Temp;Humidity;BMP_temperature;BMP_pressure;BME280_temperature;BME280_humidity;BME280_pressure;Samples;Min_cycle;Max_cycle;Signal;HPM_P1;HPM_P2
2023/02/03 00:00:13;;;;;;;5.53;0.90;;;;;;;5.70;100.00;97426.13;5038282;28;20217;-69
2023/02/03 00:02:39;;;;;;;2.30;1.30;;;;;;;5.62;100.00;97431.13;5038731;28;20220;-69
2023/02/03 00:05:08;;;;;;;4.90;1.60;;;;;;;5.72;100.00;97424.25;5037381;28;20666;-69
2023/02/03 00:07:36;;;;;;;2.50;1.40;;;;;;;5.54;100.00;97420.44;5038342;28;20205;-69
2023/02/03 00:10:03;;;;;;;2.53;1.33;;;;;;;5.45;100.00;97421.97;5038242;28;20232;-69
2023/02/03 00:12:29;;;;;;;2.43;1.17;;;;;;;5.53;100.00;97418.78;5036913;28;20292;-69
2023/02/03 00:14:56;;;;;;;3.47;1.63;;;;;;;5.50;100.00;97419.84;5037186;28;20549;-69
2023/02/03 00:17:22;;;;;;;2.10;0.93;;;;;;;5.60;100.00;97428.66;5038397;28;20300;-69
2023/02/03 00:19:49;;;;;;;3.87;1.20;;;;;;;5.73;100.00;97423.31;5038860;28;20217;-69
2023/02/03 00:22:17;;;;;;;4.07;1.53;;;;;;;5.60;100.00;97417.34;5038090;28;20203;-69
2023/02/03 00:24:43;;;;;;;0.63;0.63;;;;;;;5.54;100.00;97421.25;5037563;28;20208;-69
2023/02/03 00:27:09;;;;;;;6.50;1.90;;;;;;;5.53;100.00;97414.38;5038342;28;20202;-69
2023/02/03 00:29:36;;;;;;;3.43;1.30;;;;;;;5.57;100.00;97409.75;5037901;28;20599;-69
2023/02/03 00:32:02;;;;;;;2.00;0.87;;;;;;;5.68;100.00;97412.38;5037628;28;20200;-69
2023/02/03 00:34:30;;;;;;;3.70;1.20;;;;;;;5.60;100.00;97404.25;5038317;28;20215;-69
2023/02/03 00:36:56;;;;;;;2.50;1.30;;;;;;;5.56;100.00;97414.16;5037959;28;20235;-69
2023/02/03 00:39:24;;;;;;;4.83;1.57;;;;;;;5.48;100.00;97420.91;5037109;28;20793;-69
2023/02/03 00:41:51;;;;;;;2.77;1.40;;;;;;;5.53;100.00;97414.38;5037740;28;20669;-69
2023/02/03 00:44:17;;;;;;;5.63;0.97;;;;;;;5.57;100.00;97412.34;5037177;28;20201;-69
2023/02/03 00:46:43;;;;;;;0.77;0.60;;;;;;;5.48;100.00;97407.84;5037478;28;20230;-69
2023/02/03 00:49:10;;;;;;;12.63;1.57;;;;;;;5.51;100.00;97412.81;5037250;28;20209;-69
2023/02/03 00:51:36;;;;;;;2.13;1.20;;;;;;;5.54;100.00;97423.06;5037985;28;20211;-69
2023/02/03 00:54:03;;;;;;;2.83;1.30;;;;;;;5.49;100.00;97439.06;5036596;28;20202;-69
2023/02/03 00:56:31;;;;;;;3.50;1.50;;;;;;;5.59;100.00;97428.75;5037204;28;20209;-69
2023/02/03 00:58:57;;;;;;;1.53;1.20;;;;;;;5.62;100.00;97436.38;5037549;28;20216;-69
2023/02/03 01:01:24;;;;;;;1.63;1.13;;;;;;;5.56;100.00;97444.66;5036752;28;20231;-69
2023/02/03 01:03:50;;;;;;;2.07;0.80;;;;;;;5.55;100.00;97445.66;5035694;28;20666;-69
2023/02/03 01:06:19;;;;;;;1.67;0.90;;;;;;;5.55;100.00;97443.84;5036530;28;20632;-69
2023/02/03 01:08:46;;;;;;;3.33;1.40;;;;;;;5.57;100.00;97446.34;5036178;28;20708;-69
2023/02/03 01:11:16;;;;;;;1.10;1.00;;;;;;;5.57;100.00;97441.13;5036055;28;20229;-69
2023/02/03 01:13:44;;;;;;;2.83;1.00;;;;;;;5.55;100.00;97435.19;5035635;28;20351;-69
2023/02/03 01:16:13;;;;;;;2.90;1.07;;;;;;;5.64;100.00;97440.53;5035559;28;20208;-69
2023/02/03 01:18:39;;;;;;;1.10;0.80;;;;;;;5.51;100.00;97436.34;5036336;28;20669;-69
2023/02/03 01:21:07;;;;;;;1.93;0.93;;;;;;;5.50;100.00;97439.94;5036038;28;20217;-69
2023/02/03 01:23:34;;;;;;;0.70;0.70;;;;;;;5.49;100.00;97427.81;5035650;28;20208;-69
2023/02/03 01:26:04;;;;;;;2.67;1.27;;;;;;;5.60;100.00;97426.03;5035948;28;20207;-69
2023/02/03 01:28:32;;;;;;;1.23;0.93;;;;;;;5.48;100.00;97434.78;5036728;28;20212;-69
2023/02/03 01:31:09;;;;;;;2.33;1.30;;;;;;;5.62;100.00;97434.56;5036163;28;20232;-69
2023/02/03 01:33:35;;;;;;;1.33;1.00;;;;;;;5.55;100.00;97432.56;5035391;28;20204;-69
2023/02/03 01:36:02;;;;;;;5.60;1.57;;;;;;;5.62;100.00;97423.28;5036356;28;20201;-69
2023/02/03 01:38:29;;;;;;;2.17;1.30;;;;;;;5.54;100.00;97417.81;5036504;28;20201;-69
2023/02/03 01:40:55;;;;;;;5.23;1.10;;;;;;;5.43;100.00;97404.72;5035656;28;20223;-69
2023/02/03 01:43:29;;;;;;;3.20;1.10;;;;;;;5.47;100.00;97390.47;5036125;28;20582;-69
2023/02/03 01:45:56;;;;;;;3.13;1.30;;;;;;;5.43;100.00;97389.91;5035398;28;20200;-69
2023/02/03 01:48:24;;;;;;;3.00;1.43;;;;;;;5.45;100.00;97395.00;5035502;28;20213;-69
2023/02/03 01:50:51;;;;;;;2.30;0.80;;;;;;;5.36;100.00;97393.09;5035668;28;20225;-69
2023/02/03 01:53:17;;;;;;;5.90;1.30;;;;;;;5.47;100.00;97404.41;5035915;28;20288;-69
2023/02/03 01:55:47;;;;;;;1.40;1.03;;;;;;;5.49;100.00;97407.72;5034665;28;20216;-69
2023/02/03 01:58:19;;;;;;;2.87;1.40;;;;;;;5.46;100.00;97404.53;5035372;28;20524;-69
2023/02/03 02:00:46;;;;;;;3.03;0.90;;;;;;;5.45;100.00;97421.16;5035900;28;20220;-69
2023/02/03 02:03:13;;;;;;;5.57;1.47;;;;;;;5.46;100.00;97412.38;5035246;28;20205;-69
2023/02/03 02:05:46;;;;;;;1.57;1.30;;;;;;;5.50;100.00;97419.03;5034709;28;20607;-69
2023/02/03 02:08:13;;;;;;;2.87;1.00;;;;;;;5.44;100.00;97417.69;5035235;28;20197;-69
2023/02/03 02:10:40;;;;;;;1.63;0.80;;;;;;;5.41;100.00;97409.25;5034903;28;20781;-69
2023/02/03 02:13:06;;;;;;;4.80;1.17;;;;;;;5.43;100.00;97401.31;5035406;28;20582;-69
2023/02/03 02:15:45;;;;;;;2.17;1.53;;;;;;;5.55;100.00;97403.81;5034537;28;20582;-69
2023/02/03 02:18:26;;;;;;;3.80;1.67;;;;;;;5.60;100.00;97401.66;5035240;28;20197;-69
2023/02/03 02:21:22;;;;;;;4.47;1.30;;;;;;;5.52;100.00;97383.97;5035491;28;20603;-69
2023/02/03 02:24:27;;;;;;;1.53;0.97;;;;;;;5.60;100.00;97378.13;5034639;28;20197;-69
2023/02/03 02:27:21;;;;;;;1.70;1.17;;;;;;;5.38;100.00;97370.28;5035289;28;20227;-69
2023/02/03 02:30:23;;;;;;;1.10;1.00;;;;;;;5.46;100.00;97376.59;5035218;28;20229;-69
2023/02/03 02:33:02;;;;;;;3.20;1.00;;;;;;;5.40;100.00;97376.22;5035495;28;20633;-69
2023/02/03 02:35:39;;;;;;;1.13;0.83;;;;;;;5.39;100.00;97374.56;5034587;28;20258;-69
2023/02/03 02:38:15;;;;;;;2.90;1.20;;;;;;;5.44;100.00;97364.59;5034843;28;20204;-69
2023/02/03 02:40:48;;;;;;;3.87;1.40;;;;;;;5.41;100.00;97359.59;5035103;28;20240;-69
2023/02/03 02:43:21;;;;;;;4.63;0.87;;;;;;;5.44;100.00;97367.19;5034628;28;20205;-69
2023/02/03 02:45:50;;;;;;;4.13;1.50;;;;;;;5.40;100.00;97363.16;5035198;28;20201;-69
2023/02/03 02:48:22;;;;;;;2.07;1.40;;;;;;;5.43;100.00;97370.75;5035318;28;20564;-69
2023/02/03 02:50:52;;;;;;;3.10;1.17;;;;;;;5.42;100.00;97368.25;5035211;28;20221;-69
2023/02/03 02:53:23;;;;;;;1.33;0.80;;;;;;;5.37;100.00;97365.16;5035944;28;20703;-69
2023/02/03 02:55:51;;;;;;;0.43;0.43;;;;;;;5.35;100.00;97367.91;5034638;28;20212;-69
2023/02/03 02:58:21;;;;;;;0.87;0.73;;;;;;;5.40;100.00;97349.25;5037925;28;20208;-69
2023/02/03 03:00:47;;;;;;;0.57;0.47;;;;;;;5.34;100.00;97339.28;5039550;28;20228;-69
2023/02/03 03:03:15;;;;;;;2.47;1.00;;;;;;;5.25;100.00;97330.38;5039519;28;20201;-69
2023/02/03 03:05:47;;;;;;;1.70;0.93;;;;;;;5.38;100.00;97336.31;5038694;28;20201;-69
2023/02/03 03:08:16;;;;;;;0.70;0.40;;;;;;;5.28;100.00;97330.13;5039214;28;20216;-69
2023/02/03 03:10:43;;;;;;;5.70;1.43;;;;;;;5.27;100.00;97333.69;5039363;28;20244;-69
2023/02/03 03:13:14;;;;;;;3.40;1.30;;;;;;;5.34;100.00;97350.56;5039084;28;20214;-69
2023/02/03 03:15:42;;;;;;;0.97;0.87;;;;;;;5.37;100.00;97370.41;5038514;28;20198;-69
2023/02/03 03:18:14;;;;;;;1.23;0.80;;;;;;;5.40;100.00;97365.78;5039532;28;20212;-69
2023/02/03 03:20:43;;;;;;;0.70;0.70;;;;;;;5.40;100.00;97371.00;5038895;28;20217;-69
2023/02/03 03:23:14;;;;;;;0.80;0.70;;;;;;;5.50;100.00;97378.00;5038696;28;20201;-69
2023/02/03 03:25:44;;;;;;;1.50;0.70;;;;;;;5.49;100.00;97373.72;5038556;28;20201;-69
2023/02/03 03:28:16;;;;;;;0.90;0.80;;;;;;;5.56;100.00;97369.69;5038883;28;20193;-69
2023/02/03 03:30:43;;;;;;;4.63;1.00;;;;;;;5.55;100.00;97359.38;5038880;28;20229;-69
2023/02/03 03:33:10;;;;;;;1.53;1.07;;;;;;;5.44;100.00;97360.19;5039169;28;20209;-69
2023/02/03 03:35:42;;;;;;;2.20;0.80;;;;;;;5.59;100.00;97360.78;5038276;28;20270;-69
2023/02/03 03:38:17;;;;;;;3.10;1.10;;;;;;;5.65;100.00;97362.91;5038865;28;20201;-69
2023/02/03 03:40:48;;;;;;;1.77;1.00;;;;;;;5.57;100.00;97358.28;5038868;28;20614;-69
2023/02/03 03:43:19;;;;;;;6.73;1.13;;;;;;;5.54;100.00;97370.78;5038450;28;20204;-69
2023/02/03 03:45:52;;;;;;;0.73;0.70;;;;;;;5.45;100.00;97361.03;5037568;28;20553;-69
2023/02/03 03:48:26;;;;;;;3.17;0.83;;;;;;;5.50;100.00;97348.44;5038748;28;20678;-69
2023/02/03 03:50:58;;;;;;;1.10;0.77;;;;;;;5.53;100.00;97361.25;5036185;28;20598;-69
2023/02/03 03:53:28;;;;;;;0.93;0.77;;;;;;;5.43;100.00;97359.47;5038561;28;20213;-69
2023/02/03 03:55:57;;;;;;;1.07;0.77;;;;;;;5.44;100.00;97367.19;5038834;28;20206;-69
2023/02/03 03:58:27;;;;;;;6.17;0.80;;;;;;;5.59;100.00;97379.09;5038574;28;20205;-69
2023/02/03 04:00:58;;;;;;;1.20;0.63;;;;;;;5.54;100.00;97383.84;5038423;28;20217;-69
2023/02/03 04:03:30;;;;;;;0.67;0.67;;;;;;;5.51;100.00;97394.50;5038805;28;20219;-69
2023/02/03 04:05:56;;;;;;;0.50;0.50;;;;;;;5.44;100.00;97399.38;5038840;28;20204;-69
2023/02/03 04:08:23;;;;;;;1.27;0.90;;;;;;;5.52;100.00;97393.56;5037577;28;20791;-69
2023/02/03 04:10:51;;;;;;;3.23;0.90;;;;;;;5.64;100.00;97403.09;5038203;28;20259;-69
2023/02/03 04:13:19;;;;;;;0.93;0.90;;;;;;;5.45;100.00;97415.91;5039080;28;20197;-69
2023/02/03 04:15:45;;;;;;;2.20;0.97;;;;;;;5.47;100.00;97414.00;5037526;28;20205;-69
2023/02/03 04:18:13;;;;;;;4.20;0.80;;;;;;;5.54;100.00;97404.75;5038204;28;20216;-69
2023/02/03 04:20:40;;;;;;;2.33;0.97;;;;;;;5.61;100.00;97411.16;5038423;28;20271;-69
2023/02/03 04:23:07;;;;;;;1.07;0.60;;;;;;;5.48;100.00;97400.81;5038455;28;20204;-69
2023/02/03 04:25:33;;;;;;;16.70;1.00;;;;;;;5.45;100.00;97405.47;5037610;28;20217;-69
2023/02/03 04:28:01;;;;;;;1.07;0.80;;;;;;;5.60;100.00;97425.19;5038149;28;20201;-69
2023/02/03 04:30:27;;;;;;;2.73;0.70;;;;;;;5.47;100.00;97420.09;5037929;28;20602;-69
2023/02/03 04:32:54;;;;;;;2.93;1.00;;;;;;;5.43;100.00;97428.25;5038184;28;20197;-69
2023/02/03 04:35:20;;;;;;;1.07;0.70;;;;;;;5.51;100.00;97415.44;5037696;28;20661;-69
2023/02/03 04:37:47;;;;;;;1.17;0.60;;;;;;;5.49;100.00;97406.88;5038249;28;20231;-69
2023/02/03 04:40:14;;;;;;;1.60;1.00;;;;;;;5.57;100.00;97400.09;5037625;28;20224;-69
2023/02/03 04:42:41;;;;;;;5.60;1.30;;;;;;;5.53;100.00;97400.47;5038286;28;20768;-69
2023/02/03 04:45:11;;;;;;;1.00;0.70;;;;;;;5.59;100.00;97381.72;5038692;28;20213;-69
2023/02/03 04:47:38;;;;;;;0.70;0.60;;;;;;;5.58;100.00;97374.81;5038138;28;20204;-69
2023/02/03 04:50:06;;;;;;;1.57;0.80;;;;;;;5.59;99.80;97373.88;5037747;28;20220;-69
2023/02/03 04:52:32;;;;;;;3.03;1.10;;;;;;;5.51;100.00;97384.06;5037902;28;20250;-69
2023/02/03 04:54:59;;;;;;;3.03;0.70;;;;;;;5.57;100.00;97389.63;5036777;28;20708;-69
2023/02/03 04:57:25;;;;;;;1.07;0.53;;;;;;;5.52;99.62;97385.72;5037410;28;20205;-69
2023/02/03 04:59:52;;;;;;;2.23;1.00;;;;;;;5.59;99.78;97386.94;5037690;28;20228;-69
2023/02/03 05:02:19;;;;;;;6.97;0.97;;;;;;;5.68;99.48;97370.53;5037481;28;20209;-69
2023/02/03 05:04:46;;;;;;;1.10;1.00;;;;;;;5.52;99.71;97383.97;5036706;28;20208;-69
2023/02/03 05:07:12;;;;;;;1.10;0.90;;;;;;;5.52;99.88;97394.41;5038030;28;20201;-69
2023/02/03 05:09:39;;;;;;;0.70;0.70;;;;;;;5.58;99.44;97377.41;5037340;28;20223;-69
2023/02/03 05:12:06;;;;;;;0.77;0.70;;;;;;;5.58;99.23;97377.41;5036900;28;20228;-69
2023/02/03 05:14:32;;;;;;;1.30;0.70;;;;;;;5.56;99.36;97382.78;5037459;28;20209;-69
2023/02/03 05:16:59;;;;;;;0.60;0.50;;;;;;;5.53;99.50;97383.00;5036988;28;20197;-69
2023/02/03 05:19:26;;;;;;;1.10;0.90;;;;;;;5.71;99.45;97378.13;5036661;28;20211;-69
2023/02/03 05:21:53;;;;;;;3.50;1.13;;;;;;;5.62;98.91;97376.22;5036939;28;20288;-69
2023/02/03 05:24:19;;;;;;;3.60;1.03;;;;;;;5.59;99.59;97371.25;5036700;28;20763;-69
2023/02/03 05:26:46;;;;;;;0.60;0.60;;;;;;;5.51;99.62;97357.91;5036920;28;20201;-69
2023/02/03 05:29:12;;;;;;;0.87;0.70;;;;;;;5.51;100.00;97356.16;5036959;28;20205;-69
2023/02/03 05:31:39;;;;;;;1.83;0.90;;;;;;;5.48;100.00;97355.56;5037998;28;20225;-69
2023/02/03 05:34:05;;;;;;;1.03;0.70;;;;;;;5.53;100.00;97356.03;5035749;28;20198;-69
2023/02/03 05:36:33;;;;;;;3.00;0.97;;;;;;;5.56;100.00;97366.25;5036785;28;20724;-69
2023/02/03 05:38:59;;;;;;;1.70;1.03;;;;;;;5.39;100.00;97369.34;5037216;28;20201;-69
2023/02/03 05:44:10;;;;;;;2.87;1.07;;;;;;;5.53;100.00;97363.88;5036228;28;20282;-69
2023/02/03 05:46:37;;;;;;;6.20;1.23;;;;;;;5.47;100.00;97366.94;5037073;28;20197;-69
2023/02/03 05:49:03;;;;;;;2.70;1.40;;;;;;;5.42;100.00;97363.03;5036591;28;20213;-69
2023/02/03 05:51:30;;;;;;;3.50;1.50;;;;;;;5.45;100.00;97363.63;5036325;28;20224;-69
2023/02/03 05:53:57;;;;;;;12.53;1.80;;;;;;;5.63;100.00;97367.44;5036081;28;20216;-69
2023/02/03 05:56:24;;;;;;;3.30;1.77;;;;;;;5.45;100.00;97374.09;5036053;28;20304;-69
2023/02/03 05:58:52;;;;;;;3.53;2.10;;;;;;;5.55;100.00;97385.50;5036836;28;20205;-69
2023/02/03 06:01:19;;;;;;;3.13;1.43;;;;;;;5.48;100.00;97384.31;5036387;28;20290;-69
2023/02/03 06:03:47;;;;;;;1.10;1.00;;;;;;;5.50;100.00;97385.84;5035900;28;20795;-69
2023/02/03 06:06:14;;;;;;;2.00;1.17;;;;;;;5.42;100.00;97379.53;5036218;28;20204;-69
2023/02/03 06:08:40;;;;;;;1.93;1.30;;;;;;;5.47;100.00;97367.81;5036400;28;20205;-69
2023/02/03 06:11:08;;;;;;;2.83;1.17;;;;;;;5.58;100.00;97380.03;5036694;28;20235;-69
2023/02/03 06:13:35;;;;;;;1.20;1.10;;;;;;;5.38;100.00;97383.34;5035899;28;20650;-69
2023/02/03 06:16:02;;;;;;;2.10;1.10;;;;;;;5.41;100.00;97380.53;5035515;28;20201;-69
2023/02/03 06:18:28;;;;;;;4.33;2.53;;;;;;;5.42;100.00;97374.31;5037118;28;20205;-69
2023/02/03 06:20:55;;;;;;;3.70;1.83;;;;;;;5.38;100.00;97391.19;5036674;28;20239;-69
2023/02/03 06:23:21;;;;;;;3.90;1.27;;;;;;;5.32;100.00;97391.69;5036039;28;20208;-69
2023/02/03 06:25:49;;;;;;;1.23;0.90;;;;;;;5.34;100.00;97375.88;5036454;28;20201;-69
2023/02/03 06:28:16;;;;;;;1.00;0.90;;;;;;;5.31;100.00;97371.72;5036035;28;20197;-69
2023/02/03 06:30:43;;;;;;;1.50;1.20;;;;;;;5.29;100.00;97362.31;5036228;28;20224;-69
2023/02/03 06:33:10;;;;;;;1.23;0.90;;;;;;;5.23;100.00;97374.09;5040069;28;20205;-69
2023/02/03 06:35:36;;;;;;;1.80;1.27;;;;;;;5.20;100.00;97384.75;5039675;28;20196;-68
2023/02/03 06:38:03;;;;;;;2.17;1.13;;;;;;;5.14;100.00;97390.47;5040208;28;20207;-68
2023/02/03 06:40:29;;;;;;;5.13;1.50;;;;;;;5.18;100.00;97391.91;5040566;28;20225;-68
2023/02/03 06:42:55;;;;;;;0.97;0.70;;;;;;;5.28;100.00;97398.06;5040089;28;20198;-68
2023/02/03 06:45:23;;;;;;;1.63;0.97;;;;;;;5.26;100.00;97399.97;5039726;28;20215;-68
2023/02/03 06:47:50;;;;;;;2.27;1.07;;;;;;;5.20;100.00;97392.59;5040382;28;20274;-68
2023/02/03 06:50:16;;;;;;;8.43;1.77;;;;;;;5.17;100.00;97389.41;5039637;28;20243;-69
2023/02/03 06:52:43;;;;;;;7.73;1.80;;;;;;;5.08;100.00;97383.09;5039816;28;20221;-69
2023/02/03 06:55:10;;;;;;;6.17;1.70;;;;;;;5.14;100.00;97390.47;5038970;28;21139;-68
2023/02/03 06:57:43;;;;;;;1.73;1.40;;;;;;;5.20;100.00;97400.44;5039658;28;20676;-68
2023/02/03 07:00:12;;;;;;;2.43;1.50;;;;;;;5.21;100.00;97411.72;5040169;28;20228;-69
2023/02/03 07:02:40;;;;;;;1.27;1.07;;;;;;;5.22;100.00;97419.44;5039549;28;20204;-69
2023/02/03 07:05:07;;;;;;;6.50;1.47;;;;;;;5.09;100.00;97403.03;5038520;28;20201;-68
2023/02/03 07:07:33;;;;;;;4.90;1.47;;;;;;;5.06;100.00;97397.22;5039635;28;21221;-69
2023/02/03 07:10:00;;;;;;;2.10;1.23;;;;;;;5.10;100.00;97393.41;5039980;28;20285;-69
2023/02/03 07:12:26;;;;;;;3.07;1.50;;;;;;;5.11;100.00;97379.41;5039511;28;20228;-69
2023/02/03 07:14:53;;;;;;;3.17;1.33;;;;;;;5.13;100.00;97385.34;5039143;28;20234;-68
2023/02/03 07:17:20;;;;;;;1.43;1.13;;;;;;;5.03;100.00;97390.44;5039326;28;20211;-68
2023/02/03 07:19:48;;;;;;;0.87;0.70;;;;;;;5.17;100.00;97376.34;5038832;28;20220;-69
2023/02/03 07:22:14;;;;;;;3.37;1.20;;;;;;;5.10;100.00;97365.50;5039490;28;20201;-68
2023/02/03 07:24:40;;;;;;;5.63;1.83;;;;;;;5.04;100.00;97362.50;5039320;28;20214;-69
2023/02/03 07:27:07;;;;;;;3.20;1.30;;;;;;;5.11;100.00;97356.72;5038948;28;20201;-69
2023/02/03 07:29:33;;;;;;;0.90;0.87;;;;;;;5.05;100.00;97344.16;5039220;28;20231;-69
2023/02/03 07:32:01;;;;;;;2.97;1.20;;;;;;;5.09;100.00;97349.94;5039815;28;20233;-68
2023/02/03 07:34:27;;;;;;;3.30;1.33;;;;;;;5.09;100.00;97339.50;5037977;28;20209;-69
2023/02/03 07:36:56;;;;;;;4.27;1.13;;;;;;;5.08;100.00;97349.13;5038883;28;20228;-68
2023/02/03 07:39:22;;;;;;;2.90;1.30;;;;;;;5.15;100.00;97355.53;5039739;28;20692;-69
2023/02/03 07:41:49;;;;;;;5.53;1.60;;;;;;;5.14;100.00;97348.66;5039559;28;20201;-68
2023/02/03 07:44:15;;;;;;;0.80;0.67;;;;;;;5.08;100.00;97335.25;5036979;28;20219;-68
2023/02/03 07:46:43;;;;;;;1.07;0.90;;;;;;;5.09;100.00;97329.03;5039162;28;20209;-68
2023/02/03 07:49:10;;;;;;;2.57;1.00;;;;;;;5.09;100.00;97340.34;5039008;28;20292;-69
2023/02/03 07:51:37;;;;;;;5.33;2.43;;;;;;;5.24;100.00;97352.22;5038089;28;20232;-69
2023/02/03 07:54:05;;;;;;;4.60;1.80;;;;;;;5.26;100.00;97337.25;5038030;28;20217;-68
2023/02/03 07:56:31;;;;;;;2.43;0.80;;;;;;;5.18;100.00;97333.56;5038399;28;20226;-69
2023/02/03 07:58:58;;;;;;;9.83;3.20;;;;;;;5.34;100.00;97334.88;5038637;28;20343;-68
2023/02/03 08:01:25;;;;;;;5.77;1.43;;;;;;;5.42;100.00;97345.56;5038486;28;20244;-69
2023/02/03 08:03:52;;;;;;;3.53;1.70;;;;;;;5.46;100.00;97344.41;5038337;28;20209;-68
2023/02/03 08:06:18;;;;;;;6.07;2.40;;;;;;;5.55;100.00;97354.97;5038448;28;20221;-68
2023/02/03 08:08:45;;;;;;;2.10;0.80;;;;;;;5.50;100.00;97362.31;5038318;28;20220;-68
2023/02/03 08:11:13;;;;;;;1.33;1.10;;;;;;;5.52;100.00;97364.81;5038243;28;20228;-68
2023/02/03 08:13:39;;;;;;;2.27;1.20;;;;;;;5.56;100.00;97381.94;5037559;28;20610;-68
2023/02/03 08:16:06;;;;;;;4.40;1.00;;;;;;;5.63;100.00;97388.34;5037803;28;20216;-69
2023/02/03 08:18:33;;;;;;;3.07;1.20;;;;;;;5.52;100.00;97383.97;5037773;28;20201;-69
2023/02/03 08:21:02;;;;;;;4.67;1.10;;;;;;;5.57;100.00;97388.81;5037685;28;20602;-69
2023/02/03 08:23:28;;;;;;;2.40;1.10;;;;;;;5.59;100.00;97402.63;5036805;28;20209;-69
2023/02/03 08:25:55;;;;;;;1.27;1.00;;;;;;;5.61;100.00;97412.00;5037346;28;20219;-68
2023/02/03 08:28:23;;;;;;;1.60;1.20;;;;;;;5.62;100.00;97391.91;5037872;28;20216;-68
2023/02/03 08:30:49;;;;;;;1.00;0.93;;;;;;;5.56;100.00;97392.38;5038060;28;20228;-69
2023/02/03 08:33:16;;;;;;;1.50;1.23;;;;;;;5.56;100.00;97389.75;5038270;28;20244;-69
2023/02/03 08:35:46;;;;;;;1.60;1.17;;;;;;;5.73;100.00;97394.53;5036940;28;20695;-69
2023/02/03 08:38:12;;;;;;;3.27;1.40;;;;;;;5.74;100.00;97401.41;5037712;28;20258;-69
2023/02/03 08:40:39;;;;;;;1.90;0.80;;;;;;;5.86;100.00;97396.09;5037897;28;20322;-69
2023/02/03 08:43:05;;;;;;;4.67;0.93;;;;;;;5.78;100.00;97389.78;5038239;28;20204;-69
2023/02/03 08:45:33;;;;;;;3.10;1.17;;;;;;;5.90;100.00;97386.22;5036918;28;20201;-68
2023/02/03 08:48:00;;;;;;;4.07;0.70;;;;;;;5.92;100.00;97386.91;5037374;28;20220;-69
2023/02/03 08:50:26;;;;;;;0.77;0.70;;;;;;;5.90;100.00;97381.81;5038494;28;20232;-69
2023/02/03 08:52:53;;;;;;;2.63;0.80;;;;;;;5.92;100.00;97386.91;5037817;28;20221;-69
2023/02/03 08:55:19;;;;;;;1.17;0.80;;;;;;;5.76;100.00;97387.28;5036333;28;20240;-69
2023/02/03 08:57:46;;;;;;;4.33;1.03;;;;;;;5.72;100.00;97393.69;5037793;28;20221;-69
2023/02/03 09:00:13;;;;;;;8.93;1.03;;;;;;;5.89;100.00;97376.72;5037706;28;20232;-69
2023/02/03 09:02:41;;;;;;;4.63;1.17;;;;;;;5.91;100.00;97401.78;5037040;28;21241;-69
2023/02/03 09:05:09;;;;;;;1.67;0.80;;;;;;;5.83;100.00;97398.97;5036904;28;21068;-69
2023/02/03 09:07:35;;;;;;;3.17;0.73;;;;;;;5.78;100.00;97408.09;5037450;28;20209;-69
2023/02/03 09:10:02;;;;;;;1.00;0.67;;;;;;;5.84;100.00;97405.00;5037153;28;20232;-69
2023/02/03 09:12:28;;;;;;;1.07;0.83;;;;;;;5.81;100.00;97407.88;5038540;28;20240;-69
2023/02/03 09:14:55;;;;;;;1.50;1.03;;;;;;;5.80;100.00;97395.75;5036778;28;20292;-68
2023/02/03 09:17:22;;;;;;;12.20;1.10;;;;;;;5.89;100.00;97384.56;5036564;28;20308;-68
2023/02/03 09:19:49;;;;;;;0.50;0.50;;;;;;;5.99;100.00;97385.50;5037359;28;20217;-68
2023/02/03 09:22:16;;;;;;;1.23;0.80;;;;;;;6.00;100.00;97390.59;5037609;28;20673;-68
2023/02/03 09:24:43;;;;;;;0.90;0.70;;;;;;;6.05;100.00;97397.13;5036509;28;20209;-69
2023/02/03 09:27:09;;;;;;;1.43;0.90;;;;;;;6.00;100.00;97384.56;5036707;28;20278;-69
2023/02/03 09:29:36;;;;;;;0.90;0.90;;;;;;;6.01;100.00;97386.19;5036922;28;20221;-68
2023/02/03 09:32:06;;;;;;;1.73;1.03;;;;;;;5.94;100.00;97388.47;5037127;28;20229;-69
2023/02/03 09:34:33;;;;;;;1.47;1.03;;;;;;;6.02;100.00;97391.34;5036187;28;20250;-69
2023/02/03 09:37:00;;;;;;;2.17;1.27;;;;;;;6.20;100.00;97368.94;5036695;28;20677;-68
2023/02/03 09:39:27;;;;;;;6.47;1.33;;;;;;;6.17;100.00;97348.22;5036942;28;20212;-69
2023/02/03 09:42:11;;;;;;;6.77;1.57;;;;;;;6.40;99.71;97357.66;5037733;28;20201;-69
2023/02/03 09:44:45;;;;;;;1.73;0.77;;;;;;;6.37;99.35;97365.78;5036234;28;20201;-69
2023/02/03 09:47:15;;;;;;;4.10;1.20;;;;;;;6.47;98.16;97353.59;5036921;28;20288;-69
2023/02/03 09:49:47;;;;;;;3.17;0.90;;;;;;;6.42;97.75;97374.09;5036359;28;21077;-69
2023/02/03 09:52:19;;;;;;;6.13;1.53;;;;;;;6.48;98.27;97369.19;5036125;28;20225;-69
2023/02/03 09:54:53;;;;;;;2.40;0.80;;;;;;;6.58;96.57;97377.97;5036672;28;20209;-68
2023/02/03 09:57:22;;;;;;;2.83;1.43;;;;;;;6.72;96.26;97375.00;5035773;28;20209;-69
2023/02/03 09:59:49;;;;;;;3.77;1.10;;;;;;;6.53;95.24;97379.28;5036020;28;20231;-69
2023/02/03 10:02:38;;;;;;;1.17;0.90;;;;;;;6.72;94.89;97377.63;5037270;28;20204;-69
2023/02/03 10:05:19;;;;;;;1.23;0.90;;;;;;;6.61;94.74;97380.31;5035851;28;20212;-69
2023/02/03 10:07:56;;;;;;;1.33;1.10;;;;;;;6.62;94.04;97379.38;5036161;28;20583;-68
2023/02/03 10:10:38;;;;;;;2.20;1.00;;;;;;;6.79;94.92;97378.81;5036644;28;20268;-69
2023/02/03 10:13:14;;;;;;;1.70;1.03;;;;;;;6.61;94.63;97372.47;5036646;28;20225;-68
2023/02/03 10:15:55;;;;;;;1.87;0.97;;;;;;;6.61;95.56;97355.94;5035252;28;20230;-69
2023/02/03 10:18:25;;;;;;;1.80;1.00;;;;;;;6.50;96.37;97369.88;5037219;28;20204;-69
2023/02/03 10:20:55;;;;;;;2.33;0.87;;;;;;;6.48;96.81;97369.19;5036345;28;20217;-68
2023/02/03 10:23:29;;;;;;;2.60;1.13;;;;;;;6.69;97.01;97377.91;5036479;28;20224;-69
2023/02/03 10:25:59;;;;;;;1.70;1.10;;;;;;;6.54;97.47;97365.22;5036084;28;20205;-69
2023/02/03 10:28:29;;;;;;;1.00;0.87;;;;;;;6.60;97.15;97362.13;5036321;28;20216;-69
2023/02/03 10:30:57;;;;;;;2.03;1.10;;;;;;;6.59;99.01;97357.81;5036267;28;20225;-69
2023/02/03 10:33:26;;;;;;;2.23;0.93;;;;;;;6.52;98.66;97374.97;5036148;28;20267;-69
2023/02/03 10:35:55;;;;;;;2.67;1.30;;;;;;;6.46;99.42;97373.69;5035713;28;20201;-68
2023/02/03 10:38:41;;;;;;;3.70;1.20;;;;;;;6.42;98.95;97382.75;5036644;28;20213;-69
2023/02/03 10:41:08;;;;;;;2.27;1.07;;;;;;;6.37;100.00;97376.25;5036236;28;20220;-69
2023/02/03 10:43:51;;;;;;;2.00;1.10;;;;;;;6.34;100.00;97377.31;5036260;28;20197;-69
2023/02/03 10:46:19;;;;;;;1.53;1.10;;;;;;;6.37;100.00;97376.25;5036160;28;20626;-69
2023/02/03 10:48:46;;;;;;;0.93;0.80;;;;;;;6.32;100.00;97376.59;5036480;28;20216;-68
2023/02/03 10:51:20;;;;;;;2.63;1.13;;;;;;;6.50;100.00;97374.28;5036188;28;20221;-69
2023/02/03 10:53:51;;;;;;;1.27;1.07;;;;;;;6.51;99.53;97383.81;5035647;28;20232;-69
2023/02/03 10:56:21;;;;;;;1.63;1.00;;;;;;;6.61;98.26;97401.28;5035702;28;20225;-69
2023/02/03 10:58:50;;;;;;;1.47;0.87;;;;;;;6.64;97.35;97389.72;5036246;28;20208;-69
2023/02/03 11:01:20;;;;;;;1.63;1.10;;;;;;;6.59;97.14;97392.69;5036041;28;20248;-69
2023/02/03 11:03:56;;;;;;;1.90;1.70;;;;;;;6.87;97.00;97377.22;5035004;28;20662;-69
2023/02/03 11:06:23;;;;;;;3.67;1.50;;;;;;;6.91;96.81;97383.03;5035678;28;20209;-68
2023/02/03 11:08:51;;;;;;;4.33;1.47;;;;;;;7.08;97.53;97367.56;5036641;28;20211;-69
2023/02/03 11:11:23;;;;;;;1.40;1.23;;;;;;;7.06;97.27;97340.63;5035913;28;20233;-69
2023/02/03 11:13:54;;;;;;;2.00;0.93;;;;;;;6.84;97.78;97339.97;5035186;28;20225;-69
2023/02/03 11:16:23;;;;;;;1.90;0.93;;;;;;;6.88;98.32;97355.28;5036190;28;20205;-69
2023/02/03 11:18:56;;;;;;;3.87;1.13;;;;;;;6.83;97.77;97354.00;5037390;28;20201;-69
2023/02/03 11:21:25;;;;;;;1.20;0.83;;;;;;;6.86;97.83;97358.97;5039009;28;20240;-69
2023/02/03 11:23:56;;;;;;;2.53;1.10;;;;;;;6.95;98.04;97352.97;5039117;28;20204;-69
2023/02/03 11:26:27;;;;;;;0.67;0.60;;;;;;;6.83;98.19;97339.13;5039216;28;20205;-69
2023/02/03 11:28:57;;;;;;;1.30;0.90;;;;;;;6.96;97.55;97325.81;5039106;28;20204;-69
2023/02/03 11:31:26;;;;;;;1.93;1.00;;;;;;;7.04;98.01;97328.63;5039234;28;20298;-69
2023/02/03 11:34:00;;;;;;;1.10;1.00;;;;;;;7.27;96.99;97329.19;5038248;28;20342;-69
2023/02/03 11:36:29;;;;;;;0.60;0.60;;;;;;;7.24;97.17;97322.53;5039307;28;20213;-69
2023/02/03 11:39:16;;;;;;;1.17;1.07;;;;;;;7.32;96.07;97311.28;5039629;28;20209;-69
2023/02/03 11:41:42;;;;;;;1.30;0.80;;;;;;;7.30;96.55;97305.31;5039185;28;20228;-69
2023/02/03 11:44:16;;;;;;;0.83;0.70;;;;;;;7.05;96.35;97311.94;5037791;28;20212;-69